sensor_id;sensor_type;location;lat;lon;timestamp;P1;durP1;ratioP1;P2;durP2;ratioP2
55720;SDS011;41626;53.098;6.168;2023-06-04T00:00:46;8.80;;;4.75;;
55720;SDS011;41626;53.098;6.168;2023-06-04T00:03:12;12.27;;;5.13;;
55720;SDS011;41626;53.098;6.168;2023-06-04T00:05:37;8.20;;;4.03;;
55720;SDS011;41626;53.098;6.168;2023-06-04T00:08:03;11.15;;;4.85;;
55720;SDS011;41626;53.098;6.168;2023-06-04T00:10:29;9.02;;;4.72;;
55720;SDS011;41626;53.098;6.168;2023-06-04T00:12:56;7.07;;;3.95;;
55720;SDS011;41626;53.098;6.168;2023-06-04T00:15:21;8.75;;;4.22;;
55720;SDS011;41626;53.098;6.168;2023-06-04T00:17:47;10.50;;;4.13;;
55720;SDS011;41626;53.098;6.168;2023-06-04T00:20:13;7.88;;;4.15;;
55720;SDS011;41626;53.098;6.168;2023-06-04T00:22:39;8.85;;;4.70;;
55720;SDS011;41626;53.098;6.168;2023-06-04T00:25:07;10.25;;;4.93;;
55720;SDS011;41626;53.098;6.168;2023-06-04T00:27:34;8.95;;;4.03;;
55720;SDS011;41626;53.098;6.168;2023-06-04T00:29:59;9.03;;;4.57;;
55720;SDS011;41626;53.098;6.168;2023-06-04T00:32:25;8.73;;;4.10;;
55720;SDS011;41626;53.098;6.168;2023-06-04T00:34:54;12.15;;;4.55;;
55720;SDS011;41626;53.098;6.168;2023-06-04T00:37:29;7.93;;;4.18;;
55720;SDS011;41626;53.098;6.168;2023-06-04T00:39:55;9.10;;;4.00;;
55720;SDS011;41626;53.098;6.168;2023-06-04T00:42:20;10.27;;;4.37;;
55720;SDS011;41626;53.098;6.168;2023-06-04T00:44:46;9.70;;;4.23;;
55720;SDS011;41626;53.098;6.168;2023-06-04T00:47:13;12.23;;;5.27;;
55720;SDS011;41626;53.098;6.168;2023-06-04T00:49:39;10.02;;;4.93;;
55720;SDS011;41626;53.098;6.168;2023-06-04T00:52:07;9.25;;;4.75;;
55720;SDS011;41626;53.098;6.168;2023-06-04T00:54:34;10.70;;;5.28;;
55720;SDS011;41626;53.098;6.168;2023-06-04T00:57:00;9.83;;;4.63;;
55720;SDS011;41626;53.098;6.168;2023-06-04T00:59:26;8.38;;;3.92;;
55720;SDS011;41626;53.098;6.168;2023-06-04T01:04:29;8.93;;;4.45;;
55720;SDS011;41626;53.098;6.168;2023-06-04T01:06:56;8.80;;;4.20;;
55720;SDS011;41626;53.098;6.168;2023-06-04T01:09:26;8.52;;;4.30;;
55720;SDS011;41626;53.098;6.168;2023-06-04T01:11:52;8.75;;;3.78;;
55720;SDS011;41626;53.098;6.168;2023-06-04T01:14:18;10.90;;;4.50;;
55720;SDS011;41626;53.098;6.168;2023-06-04T01:16:47;10.55;;;4.68;;
55720;SDS011;41626;53.098;6.168;2023-06-04T01:21:48;9.25;;;4.38;;
55720;SDS011;41626;53.098;6.168;2023-06-04T01:24:16;8.57;;;4.43;;
55720;SDS011;41626;53.098;6.168;2023-06-04T01:26:46;8.60;;;4.53;;
55720;SDS011;41626;53.098;6.168;2023-06-04T01:29:13;7.35;;;3.95;;
55720;SDS011;41626;53.098;6.168;2023-06-04T01:31:38;13.07;;;5.10;;
55720;SDS011;41626;53.098;6.168;2023-06-04T01:34:07;9.43;;;5.10;;
55720;SDS011;41626;53.098;6.168;2023-06-04T01:36:33;9.67;;;4.77;;
55720;SDS011;41626;53.098;6.168;2023-06-04T01:38:58;8.50;;;4.13;;
55720;SDS011;41626;53.098;6.168;2023-06-04T01:41:25;8.48;;;3.90;;
55720;SDS011;41626;53.098;6.168;2023-06-04T01:43:51;11.90;;;4.88;;
55720;SDS011;41626;53.098;6.168;2023-06-04T01:46:17;13.73;;;5.10;;
55720;SDS011;41626;53.098;6.168;2023-06-04T01:48:42;8.07;;;4.80;;
55720;SDS011;41626;53.098;6.168;2023-06-04T01:51:08;12.83;;;5.03;;
55720;SDS011;41626;53.098;6.168;2023-06-04T01:53:34;8.03;;;5.10;;
55720;SDS011;41626;53.098;6.168;2023-06-04T01:56:00;9.20;;;4.60;;
55720;SDS011;41626;53.098;6.168;2023-06-04T01:58:26;10.60;;;5.03;;
55720;SDS011;41626;53.098;6.168;2023-06-04T02:00:55;9.80;;;4.68;;
55720;SDS011;41626;53.098;6.168;2023-06-04T02:03:25;9.45;;;5.35;;
55720;SDS011;41626;53.098;6.168;2023-06-04T02:05:51;12.03;;;5.57;;
55720;SDS011;41626;53.098;6.168;2023-06-04T02:08:17;9.73;;;4.93;;
55720;SDS011;41626;53.098;6.168;2023-06-04T02:10:45;12.07;;;4.87;;
55720;SDS011;41626;53.098;6.168;2023-06-04T02:13:11;10.43;;;4.72;;
55720;SDS011;41626;53.098;6.168;2023-06-04T02:15:37;9.73;;;4.40;;
55720;SDS011;41626;53.098;6.168;2023-06-04T02:18:24;9.30;;;4.82;;
55720;SDS011;41626;53.098;6.168;2023-06-04T02:20:49;9.35;;;4.32;;
55720;SDS011;41626;53.098;6.168;2023-06-04T02:23:16;10.20;;;4.53;;
55720;SDS011;41626;53.098;6.168;2023-06-04T02:25:43;14.97;;;5.50;;
55720;SDS011;41626;53.098;6.168;2023-06-04T02:28:12;7.90;;;4.47;;
55720;SDS011;41626;53.098;6.168;2023-06-04T02:30:38;11.27;;;4.40;;
55720;SDS011;41626;53.098;6.168;2023-06-04T02:33:04;9.10;;;4.15;;
55720;SDS011;41626;53.098;6.168;2023-06-04T02:35:31;10.18;;;5.13;;
55720;SDS011;41626;53.098;6.168;2023-06-04T02:37:57;9.82;;;5.25;;
55720;SDS011;41626;53.098;6.168;2023-06-04T02:40:25;10.63;;;4.57;;
55720;SDS011;41626;53.098;6.168;2023-06-04T02:42:54;10.65;;;4.53;;
55720;SDS011;41626;53.098;6.168;2023-06-04T02:45:21;11.87;;;4.60;;
55720;SDS011;41626;53.098;6.168;2023-06-04T02:47:47;8.00;;;5.17;;
55720;SDS011;41626;53.098;6.168;2023-06-04T02:50:13;9.85;;;5.32;;
55720;SDS011;41626;53.098;6.168;2023-06-04T02:52:42;12.00;;;5.00;;
55720;SDS011;41626;53.098;6.168;2023-06-04T02:55:08;8.57;;;4.32;;
55720;SDS011;41626;53.098;6.168;2023-06-04T02:57:34;13.03;;;4.57;;
55720;SDS011;41626;53.098;6.168;2023-06-04T03:00:00;10.52;;;4.65;;
55720;SDS011;41626;53.098;6.168;2023-06-04T03:02:35;8.23;;;4.60;;
55720;SDS011;41626;53.098;6.168;2023-06-04T03:05:01;11.82;;;4.43;;
55720;SDS011;41626;53.098;6.168;2023-06-04T03:07:27;14.50;;;5.68;;
55720;SDS011;41626;53.098;6.168;2023-06-04T03:09:53;10.73;;;5.50;;
55720;SDS011;41626;53.098;6.168;2023-06-04T03:12:18;11.70;;;5.53;;
55720;SDS011;41626;53.098;6.168;2023-06-04T03:14:44;9.48;;;4.65;;
55720;SDS011;41626;53.098;6.168;2023-06-04T03:17:10;12.52;;;5.07;;
55720;SDS011;41626;53.098;6.168;2023-06-04T03:19:37;10.40;;;4.38;;
55720;SDS011;41626;53.098;6.168;2023-06-04T03:22:04;10.93;;;5.73;;
55720;SDS011;41626;53.098;6.168;2023-06-04T03:24:34;11.00;;;5.38;;
55720;SDS011;41626;53.098;6.168;2023-06-04T03:27:05;10.20;;;5.63;;
55720;SDS011;41626;53.098;6.168;2023-06-04T03:29:32;10.07;;;4.93;;
55720;SDS011;41626;53.098;6.168;2023-06-04T03:31:58;12.67;;;6.27;;
55720;SDS011;41626;53.098;6.168;2023-06-04T03:34:25;12.10;;;5.57;;
55720;SDS011;41626;53.098;6.168;2023-06-04T03:36:54;11.70;;;6.27;;
55720;SDS011;41626;53.098;6.168;2023-06-04T03:39:20;14.05;;;6.18;;
55720;SDS011;41626;53.098;6.168;2023-06-04T03:41:47;12.10;;;5.40;;
55720;SDS011;41626;53.098;6.168;2023-06-04T03:44:13;11.18;;;5.03;;
55720;SDS011;41626;53.098;6.168;2023-06-04T03:46:40;13.00;;;5.53;;
55720;SDS011;41626;53.098;6.168;2023-06-04T03:49:09;12.73;;;6.65;;
55720;SDS011;41626;53.098;6.168;2023-06-04T03:51:36;15.63;;;6.60;;
55720;SDS011;41626;53.098;6.168;2023-06-04T03:54:02;11.53;;;5.93;;
55720;SDS011;41626;53.098;6.168;2023-06-04T03:56:28;13.70;;;6.67;;
55720;SDS011;41626;53.098;6.168;2023-06-04T03:58:53;11.97;;;5.80;;
55720;SDS011;41626;53.098;6.168;2023-06-04T04:01:19;12.43;;;5.70;;
55720;SDS011;41626;53.098;6.168;2023-06-04T04:03:45;13.60;;;5.45;;
55720;SDS011;41626;53.098;6.168;2023-06-04T04:06:15;10.50;;;6.28;;
55720;SDS011;41626;53.098;6.168;2023-06-04T04:08:41;13.95;;;6.13;;
55720;SDS011;41626;53.098;6.168;2023-06-04T04:11:10;16.17;;;6.53;;
55720;SDS011;41626;53.098;6.168;2023-06-04T04:13:37;15.45;;;6.57;;
55720;SDS011;41626;53.098;6.168;2023-06-04T04:16:02;8.90;;;6.05;;
55720;SDS011;41626;53.098;6.168;2023-06-04T04:18:32;14.48;;;7.72;;
55720;SDS011;41626;53.098;6.168;2023-06-04T04:20:58;15.68;;;6.85;;
55720;SDS011;41626;53.098;6.168;2023-06-04T04:23:24;11.55;;;6.95;;
55720;SDS011;41626;53.098;6.168;2023-06-04T04:25:50;14.33;;;6.83;;
55720;SDS011;41626;53.098;6.168;2023-06-04T04:28:16;11.57;;;5.80;;
55720;SDS011;41626;53.098;6.168;2023-06-04T04:30:42;12.35;;;6.10;;
55720;SDS011;41626;53.098;6.168;2023-06-04T04:33:09;10.52;;;5.75;;
55720;SDS011;41626;53.098;6.168;2023-06-04T04:35:36;10.93;;;5.88;;
55720;SDS011;41626;53.098;6.168;2023-06-04T04:38:01;13.30;;;6.30;;
55720;SDS011;41626;53.098;6.168;2023-06-04T04:40:30;15.77;;;6.85;;
55720;SDS011;41626;53.098;6.168;2023-06-04T04:42:57;12.15;;;6.43;;
55720;SDS011;41626;53.098;6.168;2023-06-04T04:45:23;11.05;;;6.13;;
55720;SDS011;41626;53.098;6.168;2023-06-04T04:47:49;9.85;;;6.25;;
55720;SDS011;41626;53.098;6.168;2023-06-04T04:50:16;15.23;;;6.18;;
55720;SDS011;41626;53.098;6.168;2023-06-04T04:52:41;12.20;;;5.80;;
55720;SDS011;41626;53.098;6.168;2023-06-04T04:55:07;13.50;;;6.40;;
55720;SDS011;41626;53.098;6.168;2023-06-04T04:57:33;16.45;;;6.50;;
55720;SDS011;41626;53.098;6.168;2023-06-04T04:59:59;9.77;;;5.50;;
55720;SDS011;41626;53.098;6.168;2023-06-04T05:02:25;13.53;;;7.10;;
55720;SDS011;41626;53.098;6.168;2023-06-04T05:04:50;12.37;;;6.80;;
55720;SDS011;41626;53.098;6.168;2023-06-04T05:07:16;9.63;;;6.40;;
55720;SDS011;41626;53.098;6.168;2023-06-04T05:09:42;11.85;;;6.78;;
55720;SDS011;41626;53.098;6.168;2023-06-04T05:12:08;12.30;;;6.22;;
55720;SDS011;41626;53.098;6.168;2023-06-04T05:14:33;10.88;;;6.28;;
55720;SDS011;41626;53.098;6.168;2023-06-04T05:17:01;11.98;;;6.10;;
55720;SDS011;41626;53.098;6.168;2023-06-04T05:19:28;14.30;;;6.60;;
55720;SDS011;41626;53.098;6.168;2023-06-04T05:21:57;12.05;;;6.00;;
55720;SDS011;41626;53.098;6.168;2023-06-04T05:24:24;10.40;;;6.63;;
55720;SDS011;41626;53.098;6.168;2023-06-04T05:26:50;15.00;;;7.00;;
55720;SDS011;41626;53.098;6.168;2023-06-04T05:29:15;18.35;;;6.72;;
55720;SDS011;41626;53.098;6.168;2023-06-04T05:31:41;11.75;;;5.90;;
55720;SDS011;41626;53.098;6.168;2023-06-04T05:34:07;13.30;;;7.30;;
55720;SDS011;41626;53.098;6.168;2023-06-04T05:36:33;14.13;;;7.50;;
55720;SDS011;41626;53.098;6.168;2023-06-04T05:38:59;14.18;;;6.97;;
55720;SDS011;41626;53.098;6.168;2023-06-04T05:41:25;10.82;;;6.78;;
55720;SDS011;41626;53.098;6.168;2023-06-04T05:43:52;12.43;;;7.35;;
55720;SDS011;41626;53.098;6.168;2023-06-04T05:46:18;13.85;;;7.30;;
55720;SDS011;41626;53.098;6.168;2023-06-04T05:48:44;10.55;;;6.70;;
55720;SDS011;41626;53.098;6.168;2023-06-04T05:51:12;10.25;;;5.55;;
55720;SDS011;41626;53.098;6.168;2023-06-04T05:53:39;12.23;;;6.30;;
55720;SDS011;41626;53.098;6.168;2023-06-04T05:56:05;14.27;;;6.67;;
55720;SDS011;41626;53.098;6.168;2023-06-04T05:58:32;12.20;;;6.43;;
55720;SDS011;41626;53.098;6.168;2023-06-04T06:00:59;11.70;;;5.82;;
55720;SDS011;41626;53.098;6.168;2023-06-04T06:03:25;11.00;;;5.85;;
55720;SDS011;41626;53.098;6.168;2023-06-04T06:05:52;10.70;;;5.70;;
55720;SDS011;41626;53.098;6.168;2023-06-04T06:08:19;12.32;;;6.07;;
55720;SDS011;41626;53.098;6.168;2023-06-04T06:10:45;13.40;;;6.35;;
55720;SDS011;41626;53.098;6.168;2023-06-04T06:13:11;12.98;;;5.93;;
55720;SDS011;41626;53.098;6.168;2023-06-04T06:15:37;12.53;;;4.77;;
55720;SDS011;41626;53.098;6.168;2023-06-04T06:18:05;13.90;;;4.50;;
55720;SDS011;41626;53.098;6.168;2023-06-04T06:20:31;11.95;;;4.88;;
55720;SDS011;41626;53.098;6.168;2023-06-04T06:23:05;13.87;;;5.93;;
55720;SDS011;41626;53.098;6.168;2023-06-04T06:25:31;14.85;;;6.18;;
55720;SDS011;41626;53.098;6.168;2023-06-04T06:27:57;12.43;;;4.87;;
55720;SDS011;41626;53.098;6.168;2023-06-04T06:30:23;12.73;;;5.85;;
55720;SDS011;41626;53.098;6.168;2023-06-04T06:32:48;10.85;;;4.78;;
55720;SDS011;41626;53.098;6.168;2023-06-04T06:35:15;12.43;;;4.65;;
55720;SDS011;41626;53.098;6.168;2023-06-04T06:37:42;9.57;;;4.53;;
55720;SDS011;41626;53.098;6.168;2023-06-04T06:40:08;15.20;;;4.45;;
55720;SDS011;41626;53.098;6.168;2023-06-04T06:42:35;10.30;;;4.00;;
55720;SDS011;41626;53.098;6.168;2023-06-04T06:45:00;9.82;;;3.33;;
55720;SDS011;41626;53.098;6.168;2023-06-04T06:47:26;9.38;;;3.20;;
55720;SDS011;41626;53.098;6.168;2023-06-04T06:49:52;11.60;;;4.00;;
55720;SDS011;41626;53.098;6.168;2023-06-04T06:52:17;8.77;;;3.27;;
55720;SDS011;41626;53.098;6.168;2023-06-04T06:54:45;11.02;;;4.07;;
55720;SDS011;41626;53.098;6.168;2023-06-04T06:57:11;9.55;;;4.82;;
55720;SDS011;41626;53.098;6.168;2023-06-04T06:59:36;7.55;;;3.30;;
55720;SDS011;41626;53.098;6.168;2023-06-04T07:02:03;11.75;;;3.33;;
55720;SDS011;41626;53.098;6.168;2023-06-04T07:04:29;8.88;;;3.17;;
55720;SDS011;41626;53.098;6.168;2023-06-04T07:06:54;10.88;;;4.25;;
55720;SDS011;41626;53.098;6.168;2023-06-04T07:09:20;8.68;;;2.65;;
55720;SDS011;41626;53.098;6.168;2023-06-04T07:11:46;10.47;;;3.87;;
55720;SDS011;41626;53.098;6.168;2023-06-04T07:14:11;8.47;;;3.43;;
55720;SDS011;41626;53.098;6.168;2023-06-04T07:16:37;9.52;;;3.35;;
55720;SDS011;41626;53.098;6.168;2023-06-04T07:19:02;7.17;;;2.80;;
55720;SDS011;41626;53.098;6.168;2023-06-04T07:21:28;6.47;;;2.90;;
55720;SDS011;41626;53.098;6.168;2023-06-04T07:23:54;8.68;;;2.58;;
55720;SDS011;41626;53.098;6.168;2023-06-04T07:26:19;8.15;;;2.40;;
55720;SDS011;41626;53.098;6.168;2023-06-04T07:28:45;6.83;;;2.40;;
55720;SDS011;41626;53.098;6.168;2023-06-04T07:31:14;8.67;;;2.33;;
55720;SDS011;41626;53.098;6.168;2023-06-04T07:33:40;7.30;;;3.15;;
55720;SDS011;41626;53.098;6.168;2023-06-04T07:36:14;6.78;;;2.15;;
55720;SDS011;41626;53.098;6.168;2023-06-04T07:38:41;6.40;;;2.45;;
55720;SDS011;41626;53.098;6.168;2023-06-04T07:41:07;6.93;;;2.40;;
55720;SDS011;41626;53.098;6.168;2023-06-04T07:43:33;6.00;;;2.15;;
55720;SDS011;41626;53.098;6.168;2023-06-04T07:46:00;8.00;;;2.30;;
55720;SDS011;41626;53.098;6.168;2023-06-04T07:48:27;6.97;;;2.13;;
55720;SDS011;41626;53.098;6.168;2023-06-04T07:50:58;5.57;;;2.45;;
55720;SDS011;41626;53.098;6.168;2023-06-04T07:53:25;8.80;;;2.60;;
55720;SDS011;41626;53.098;6.168;2023-06-04T07:55:51;6.97;;;2.47;;
55720;SDS011;41626;53.098;6.168;2023-06-04T07:58:17;7.85;;;2.67;;
55720;SDS011;41626;53.098;6.168;2023-06-04T08:00:43;7.57;;;3.35;;
55720;SDS011;41626;53.098;6.168;2023-06-04T08:03:09;6.70;;;2.50;;
55720;SDS011;41626;53.098;6.168;2023-06-04T08:05:35;7.43;;;2.55;;
55720;SDS011;41626;53.098;6.168;2023-06-04T08:08:01;5.93;;;2.17;;
55720;SDS011;41626;53.098;6.168;2023-06-04T08:10:26;7.85;;;2.65;;
55720;SDS011;41626;53.098;6.168;2023-06-04T08:12:52;8.07;;;2.50;;
55720;SDS011;41626;53.098;6.168;2023-06-04T08:15:18;6.53;;;2.57;;
55720;SDS011;41626;53.098;6.168;2023-06-04T08:17:43;8.27;;;2.73;;
55720;SDS011;41626;53.098;6.168;2023-06-04T08:20:09;5.00;;;2.25;;
55720;SDS011;41626;53.098;6.168;2023-06-04T08:22:35;8.55;;;3.20;;
55720;SDS011;41626;53.098;6.168;2023-06-04T08:25:01;7.20;;;2.57;;
55720;SDS011;41626;53.098;6.168;2023-06-04T08:27:26;5.37;;;2.43;;
55720;SDS011;41626;53.098;6.168;2023-06-04T08:29:52;6.88;;;2.42;;
55720;SDS011;41626;53.098;6.168;2023-06-04T08:32:18;5.78;;;2.42;;
55720;SDS011;41626;53.098;6.168;2023-06-04T08:34:44;9.30;;;2.40;;
55720;SDS011;41626;53.098;6.168;2023-06-04T08:37:09;5.33;;;2.30;;
55720;SDS011;41626;53.098;6.168;2023-06-04T08:39:35;7.03;;;2.60;;
55720;SDS011;41626;53.098;6.168;2023-06-04T08:42:03;4.53;;;1.92;;
55720;SDS011;41626;53.098;6.168;2023-06-04T08:44:32;7.73;;;2.63;;
55720;SDS011;41626;53.098;6.168;2023-06-04T08:47:02;9.53;;;2.37;;
55720;SDS011;41626;53.098;6.168;2023-06-04T08:49:33;8.07;;;2.03;;
55720;SDS011;41626;53.098;6.168;2023-06-04T08:52:03;6.88;;;2.58;;
55720;SDS011;41626;53.098;6.168;2023-06-04T08:54:30;7.88;;;1.92;;
55720;SDS011;41626;53.098;6.168;2023-06-04T08:56:57;6.65;;;1.90;;
55720;SDS011;41626;53.098;6.168;2023-06-04T08:59:23;5.30;;;2.00;;
55720;SDS011;41626;53.098;6.168;2023-06-04T09:01:51;6.30;;;2.30;;
55720;SDS011;41626;53.098;6.168;2023-06-04T09:04:20;5.95;;;2.42;;
55720;SDS011;41626;53.098;6.168;2023-06-04T09:06:46;7.30;;;2.78;;
55720;SDS011;41626;53.098;6.168;2023-06-04T09:09:13;6.82;;;2.05;;
55720;SDS011;41626;53.098;6.168;2023-06-04T09:14:20;5.75;;;1.88;;
55720;SDS011;41626;53.098;6.168;2023-06-04T09:16:49;4.30;;;2.03;;
55720;SDS011;41626;53.098;6.168;2023-06-04T09:19:16;5.47;;;1.88;;
55720;SDS011;41626;53.098;6.168;2023-06-04T09:24:21;2.40;;;1.10;;
55720;SDS011;41626;53.098;6.168;2023-06-04T09:26:47;3.50;;;1.13;;
55720;SDS011;41626;53.098;6.168;2023-06-04T09:29:14;4.07;;;1.30;;
55720;SDS011;41626;53.098;6.168;2023-06-04T09:31:40;7.35;;;2.55;;
55720;SDS011;41626;53.098;6.168;2023-06-04T09:34:06;5.68;;;2.00;;
55720;SDS011;41626;53.098;6.168;2023-06-04T09:36:33;6.40;;;2.80;;
55720;SDS011;41626;53.098;6.168;2023-06-04T09:39:00;4.13;;;2.30;;
55720;SDS011;41626;53.098;6.168;2023-06-04T09:41:28;5.33;;;2.23;;
55720;SDS011;41626;53.098;6.168;2023-06-04T09:44:00;5.87;;;2.57;;
55720;SDS011;41626;53.098;6.168;2023-06-04T09:46:28;3.92;;;1.80;;
55720;SDS011;41626;53.098;6.168;2023-06-04T09:49:00;4.10;;;2.30;;
55720;SDS011;41626;53.098;6.168;2023-06-04T09:51:28;7.90;;;2.70;;
55720;SDS011;41626;53.098;6.168;2023-06-04T09:56:21;5.20;;;1.90;;
55720;SDS011;41626;53.098;6.168;2023-06-04T09:58:50;4.10;;;1.93;;
55720;SDS011;41626;53.098;6.168;2023-06-04T10:01:20;4.70;;;1.85;;
55720;SDS011;41626;53.098;6.168;2023-06-04T10:03:48;4.97;;;1.95;;
55720;SDS011;41626;53.098;6.168;2023-06-04T10:06:16;3.15;;;1.55;;
55720;SDS011;41626;53.098;6.168;2023-06-04T10:08:46;4.90;;;2.20;;
55720;SDS011;41626;53.098;6.168;2023-06-04T10:11:13;5.18;;;2.10;;
55720;SDS011;41626;53.098;6.168;2023-06-04T10:13:53;4.38;;;1.80;;
55720;SDS011;41626;53.098;6.168;2023-06-04T10:16:27;5.20;;;1.52;;
55720;SDS011;41626;53.098;6.168;2023-06-04T10:18:55;2.97;;;1.13;;
55720;SDS011;41626;53.098;6.168;2023-06-04T10:21:22;3.22;;;1.60;;
55720;SDS011;41626;53.098;6.168;2023-06-04T10:23:49;4.35;;;1.55;;
55720;SDS011;41626;53.098;6.168;2023-06-04T10:26:15;3.10;;;1.40;;
55720;SDS011;41626;53.098;6.168;2023-06-04T10:28:42;3.13;;;1.40;;
55720;SDS011;41626;53.098;6.168;2023-06-04T10:31:11;4.73;;;1.77;;
55720;SDS011;41626;53.098;6.168;2023-06-04T10:33:38;3.15;;;1.45;;
55720;SDS011;41626;53.098;6.168;2023-06-04T10:36:22;3.65;;;1.77;;
55720;SDS011;41626;53.098;6.168;2023-06-04T10:38:50;4.82;;;1.30;;
55720;SDS011;41626;53.098;6.168;2023-06-04T10:41:17;5.70;;;2.15;;
55720;SDS011;41626;53.098;6.168;2023-06-04T10:43:44;4.00;;;1.35;;
55720;SDS011;41626;53.098;6.168;2023-06-04T10:46:11;5.43;;;2.47;;
55720;SDS011;41626;53.098;6.168;2023-06-04T10:51:35;5.28;;;2.60;;
55720;SDS011;41626;53.098;6.168;2023-06-04T10:54:03;5.03;;;1.80;;
55720;SDS011;41626;53.098;6.168;2023-06-04T10:56:33;5.20;;;2.10;;
55720;SDS011;41626;53.098;6.168;2023-06-04T10:59:18;4.10;;;1.90;;
55720;SDS011;41626;53.098;6.168;2023-06-04T11:01:44;4.65;;;1.90;;
55720;SDS011;41626;53.098;6.168;2023-06-04T11:04:20;3.97;;;1.30;;
55720;SDS011;41626;53.098;6.168;2023-06-04T11:06:47;3.83;;;1.73;;
55720;SDS011;41626;53.098;6.168;2023-06-04T11:09:13;4.32;;;1.50;;
55720;SDS011;41626;53.098;6.168;2023-06-04T11:11:43;10.40;;;2.27;;
55720;SDS011;41626;53.098;6.168;2023-06-04T11:14:10;5.80;;;2.37;;
55720;SDS011;41626;53.098;6.168;2023-06-04T11:16:41;5.22;;;1.70;;
55720;SDS011;41626;53.098;6.168;2023-06-04T11:19:06;2.40;;;1.50;;
55720;SDS011;41626;53.098;6.168;2023-06-04T11:21:33;4.38;;;1.80;;
55720;SDS011;41626;53.098;6.168;2023-06-04T11:24:01;4.35;;;1.70;;
55720;SDS011;41626;53.098;6.168;2023-06-04T11:26:35;5.27;;;1.43;;
55720;SDS011;41626;53.098;6.168;2023-06-04T11:29:02;5.45;;;2.20;;
55720;SDS011;41626;53.098;6.168;2023-06-04T11:31:41;2.50;;;1.70;;
55720;SDS011;41626;53.098;6.168;2023-06-04T11:34:07;5.05;;;1.50;;
55720;SDS011;41626;53.098;6.168;2023-06-04T11:36:34;4.80;;;1.52;;
55720;SDS011;41626;53.098;6.168;2023-06-04T11:39:01;4.07;;;1.50;;
55720;SDS011;41626;53.098;6.168;2023-06-04T11:41:32;5.38;;;2.15;;
55720;SDS011;41626;53.098;6.168;2023-06-04T11:44:03;5.07;;;1.90;;
55720;SDS011;41626;53.098;6.168;2023-06-04T11:46:31;3.47;;;1.77;;
55720;SDS011;41626;53.098;6.168;2023-06-04T11:48:57;2.20;;;1.63;;
55720;SDS011;41626;53.098;6.168;2023-06-04T11:51:23;3.45;;;1.67;;
55720;SDS011;41626;53.098;6.168;2023-06-04T11:53:49;3.70;;;1.90;;
55720;SDS011;41626;53.098;6.168;2023-06-04T11:56:15;5.00;;;2.10;;
55720;SDS011;41626;53.098;6.168;2023-06-04T11:58:42;5.03;;;2.30;;
55720;SDS011;41626;53.098;6.168;2023-06-04T12:01:08;7.30;;;2.10;;
55720;SDS011;41626;53.098;6.168;2023-06-04T12:03:38;4.18;;;1.75;;
55720;SDS011;41626;53.098;6.168;2023-06-04T12:06:16;3.97;;;2.08;;
55720;SDS011;41626;53.098;6.168;2023-06-04T12:08:44;7.05;;;2.45;;
55720;SDS011;41626;53.098;6.168;2023-06-04T12:11:35;7.43;;;2.78;;
55720;SDS011;41626;53.098;6.168;2023-06-04T12:14:03;4.47;;;2.45;;
55720;SDS011;41626;53.098;6.168;2023-06-04T12:16:30;4.53;;;2.00;;
55720;SDS011;41626;53.098;6.168;2023-06-04T12:19:06;4.43;;;1.88;;
55720;SDS011;41626;53.098;6.168;2023-06-04T12:21:33;3.63;;;1.60;;
55720;SDS011;41626;53.098;6.168;2023-06-04T12:26:33;4.60;;;2.17;;
55720;SDS011;41626;53.098;6.168;2023-06-04T12:29:11;4.10;;;2.03;;
55720;SDS011;41626;53.098;6.168;2023-06-04T12:31:45;4.13;;;1.90;;
55720;SDS011;41626;53.098;6.168;2023-06-04T12:34:14;8.05;;;3.50;;
55720;SDS011;41626;53.098;6.168;2023-06-04T12:36:40;5.00;;;1.73;;
55720;SDS011;41626;53.098;6.168;2023-06-04T12:39:08;8.75;;;1.77;;
55720;SDS011;41626;53.098;6.168;2023-06-04T12:41:34;5.07;;;1.98;;
55720;SDS011;41626;53.098;6.168;2023-06-04T12:44:00;2.67;;;1.50;;
55720;SDS011;41626;53.098;6.168;2023-06-04T12:46:26;4.60;;;1.60;;
55720;SDS011;41626;53.098;6.168;2023-06-04T12:48:53;3.33;;;1.42;;
55720;SDS011;41626;53.098;6.168;2023-06-04T12:51:19;3.33;;;1.42;;
55720;SDS011;41626;53.098;6.168;2023-06-04T12:53:46;4.03;;;1.60;;
55720;SDS011;41626;53.098;6.168;2023-06-04T12:56:13;3.50;;;1.90;;
55720;SDS011;41626;53.098;6.168;2023-06-04T12:58:39;4.32;;;1.70;;
55720;SDS011;41626;53.098;6.168;2023-06-04T13:01:05;3.13;;;1.67;;
55720;SDS011;41626;53.098;6.168;2023-06-04T13:03:32;5.73;;;2.03;;
55720;SDS011;41626;53.098;6.168;2023-06-04T13:06:01;2.92;;;1.20;;
55720;SDS011;41626;53.098;6.168;2023-06-04T13:08:26;2.25;;;1.40;;
55720;SDS011;41626;53.098;6.168;2023-06-04T13:10:52;3.55;;;1.50;;
55720;SDS011;41626;53.098;6.168;2023-06-04T13:13:18;3.73;;;1.60;;
55720;SDS011;41626;53.098;6.168;2023-06-04T13:15:44;2.80;;;1.50;;
55720;SDS011;41626;53.098;6.168;2023-06-04T13:18:11;3.42;;;1.80;;
55720;SDS011;41626;53.098;6.168;2023-06-04T13:20:37;3.50;;;1.30;;
55720;SDS011;41626;53.098;6.168;2023-06-04T13:23:04;6.13;;;1.48;;
55720;SDS011;41626;53.098;6.168;2023-06-04T13:25:30;2.38;;;1.27;;
55720;SDS011;41626;53.098;6.168;2023-06-04T13:27:58;3.75;;;1.25;;
55720;SDS011;41626;53.098;6.168;2023-06-04T13:30:27;3.53;;;1.33;;
55720;SDS011;41626;53.098;6.168;2023-06-04T13:32:53;3.75;;;1.55;;
55720;SDS011;41626;53.098;6.168;2023-06-04T13:35:19;4.07;;;1.48;;
55720;SDS011;41626;53.098;6.168;2023-06-04T13:37:45;3.47;;;1.73;;
55720;SDS011;41626;53.098;6.168;2023-06-04T13:40:11;4.30;;;1.33;;
55720;SDS011;41626;53.098;6.168;2023-06-04T13:42:37;3.10;;;1.08;;
55720;SDS011;41626;53.098;6.168;2023-06-04T13:45:02;5.70;;;2.40;;
55720;SDS011;41626;53.098;6.168;2023-06-04T13:47:28;3.53;;;1.45;;
55720;SDS011;41626;53.098;6.168;2023-06-04T13:49:54;4.17;;;1.40;;
55720;SDS011;41626;53.098;6.168;2023-06-04T13:52:20;3.27;;;1.30;;
55720;SDS011;41626;53.098;6.168;2023-06-04T13:54:46;3.40;;;1.15;;
55720;SDS011;41626;53.098;6.168;2023-06-04T13:57:12;3.22;;;1.70;;
55720;SDS011;41626;53.098;6.168;2023-06-04T13:59:38;6.03;;;1.42;;
55720;SDS011;41626;53.098;6.168;2023-06-04T14:02:04;5.25;;;1.45;;
55720;SDS011;41626;53.098;6.168;2023-06-04T14:04:30;2.35;;;1.10;;
55720;SDS011;41626;53.098;6.168;2023-06-04T14:06:56;3.17;;;1.40;;
55720;SDS011;41626;53.098;6.168;2023-06-04T14:09:22;4.68;;;1.55;;
55720;SDS011;41626;53.098;6.168;2023-06-04T14:11:48;5.80;;;1.47;;
55720;SDS011;41626;53.098;6.168;2023-06-04T14:14:18;3.37;;;1.30;;
55720;SDS011;41626;53.098;6.168;2023-06-04T14:16:45;3.67;;;1.45;;
55720;SDS011;41626;53.098;6.168;2023-06-04T14:19:11;7.80;;;2.30;;
55720;SDS011;41626;53.098;6.168;2023-06-04T14:21:37;2.50;;;1.10;;
55720;SDS011;41626;53.098;6.168;2023-06-04T14:24:02;6.28;;;1.73;;
55720;SDS011;41626;53.098;6.168;2023-06-04T14:26:28;5.25;;;1.70;;
55720;SDS011;41626;53.098;6.168;2023-06-04T14:28:54;3.83;;;1.40;;
55720;SDS011;41626;53.098;6.168;2023-06-04T14:31:20;4.72;;;1.40;;
55720;SDS011;41626;53.098;6.168;2023-06-04T14:33:46;4.45;;;1.40;;
55720;SDS011;41626;53.098;6.168;2023-06-04T14:36:12;3.90;;;1.33;;
55720;SDS011;41626;53.098;6.168;2023-06-04T14:38:38;3.30;;;1.40;;
55720;SDS011;41626;53.098;6.168;2023-06-04T14:41:04;5.68;;;1.92;;
55720;SDS011;41626;53.098;6.168;2023-06-04T14:43:29;3.25;;;1.23;;
55720;SDS011;41626;53.098;6.168;2023-06-04T14:45:55;5.15;;;1.20;;
55720;SDS011;41626;53.098;6.168;2023-06-04T14:48:21;4.10;;;1.33;;
55720;SDS011;41626;53.098;6.168;2023-06-04T14:50:47;3.58;;;1.45;;
55720;SDS011;41626;53.098;6.168;2023-06-04T14:53:13;4.70;;;1.30;;
55720;SDS011;41626;53.098;6.168;2023-06-04T14:55:38;4.93;;;1.70;;
55720;SDS011;41626;53.098;6.168;2023-06-04T14:58:04;3.75;;;1.80;;
55720;SDS011;41626;53.098;6.168;2023-06-04T15:00:30;2.80;;;1.40;;